Terminal Aerodrome Forecast
Issued by NWS

Home | Current Version | Previous Version | Text Only | Print | Product List | Glossary On
Versions: 1 2 3 4 5 6 7 8 9 10 11 12 13 14 15 16 17 18
958
FTUS43 KAPX 220520
TAFTVC
TAF
KTVC 220520Z 2206/2306 10004KT 2SM BR SCT002 BKN022 OVC060
     FM221200 08009KT 1SM -RASN BR OVC015
     FM221400 08011G21KT 2SM -RA BR OVC015
     FM221800 07010G18KT 1 1/2SM -RA BR OVC015
     FM230000 08009KT 1SM -RA OVC008=

USA.gov is the U.S. government's official web portal to all federal, state and local government web resources and services.